Time;durP1;ratioP1;P1;durP2;ratioP2;P2;SDS_P1;SDS_P2;PMS_P1;PMS_P2;Temp;Humidity;BMP_temperature;BMP_pressure;BME280_temperature;BME280_humidity;BME280_pressure;Samples;Min_cycle;Max_cycle;Signal;HPM_P1;HPM_P2
2022/08/05 00:00:17;;;;;;;20.40;9.73;;;;;;;20.89;68.72;94994.09;5013598;28;20172;-73
2022/08/05 00:02:46;;;;;;;22.38;12.43;;;;;;;20.85;69.14;94990.34;5013253;28;20176;-73
2022/08/05 00:05:12;;;;;;;24.40;14.68;;;;;;;20.80;69.30;94987.69;5013556;28;20180;-73
2022/08/05 00:07:37;;;;;;;13.10;7.78;;;;;;;20.73;69.93;94995.22;5013158;28;20778;-73
2022/08/05 00:10:04;;;;;;;15.30;6.95;;;;;;;20.69;69.51;94992.25;5013347;28;20672;-73
2022/08/05 00:12:29;;;;;;;13.27;7.75;;;;;;;20.72;69.47;94993.59;5013197;28;20188;-73
2022/08/05 00:14:55;;;;;;;16.50;8.07;;;;;;;20.27;69.59;94919.53;5013145;28;20206;-74
2022/08/05 00:17:20;;;;;;;16.17;7.53;;;;;;;20.71;69.41;94982.09;5012968;28;20671;-74
2022/08/05 00:19:46;;;;;;;13.57;6.78;;;;;;;20.68;69.13;94969.25;5012945;28;20235;-74
2022/08/05 00:22:11;;;;;;;11.27;7.20;;;;;;;20.61;69.29;94979.44;5012983;28;20243;-74
2022/08/05 00:24:36;;;;;;;12.75;6.60;;;;;;;20.56;69.38;94979.47;5012805;28;20682;-73
2022/08/05 00:27:02;;;;;;;7.45;5.85;;;;;;;20.55;70.00;94988.56;5012798;28;20180;-73
2022/08/05 00:29:27;;;;;;;12.45;6.20;;;;;;;20.56;69.57;94978.66;5013020;28;20180;-74
2022/08/05 00:31:53;;;;;;;18.15;6.97;;;;;;;20.47;69.51;94962.34;5012748;28;20203;-74
2022/08/05 00:34:19;;;;;;;11.15;5.80;;;;;;;20.42;69.16;94951.66;5012701;28;20201;-71
2022/08/05 00:36:44;;;;;;;10.05;6.15;;;;;;;20.54;69.35;94976.25;5012630;28;20187;-71
2022/08/05 00:39:10;;;;;;;9.18;5.88;;;;;;;20.51;69.47;94970.63;5012688;28;20184;-72
2022/08/05 00:41:35;;;;;;;7.40;5.45;;;;;;;20.50;69.30;94969.81;5012098;28;21032;-71
2022/08/05 00:44:01;;;;;;;9.15;6.25;;;;;;;20.47;69.56;94970.38;5012057;28;20267;-72
2022/08/05 00:46:27;;;;;;;12.35;6.78;;;;;;;20.40;69.71;94959.16;5012751;28;20184;-72
2022/08/05 00:48:53;;;;;;;10.77;5.70;;;;;;;20.42;69.82;94966.88;5012680;28;20251;-72
2022/08/05 00:51:20;;;;;;;9.02;6.40;;;;;;;20.38;69.85;94966.63;5012478;28;20184;-72
2022/08/05 00:53:46;;;;;;;15.02;6.38;;;;;;;20.33;69.77;94961.25;5012328;28;20634;-72
2022/08/05 00:56:12;;;;;;;8.73;5.22;;;;;;;20.32;69.88;94965.03;5012412;28;20207;-71
2022/08/05 00:58:37;;;;;;;10.40;6.28;;;;;;;20.29;69.97;94962.88;5012514;28;20259;-72
2022/08/05 01:01:03;;;;;;;6.60;4.72;;;;;;;20.26;69.90;94966.06;5012271;28;20172;-71
2022/08/05 01:03:29;;;;;;;6.88;5.30;;;;;;;20.21;70.28;94972.25;5012172;28;20283;-72
2022/08/05 01:05:55;;;;;;;8.48;5.30;;;;;;;20.15;70.12;94967.94;5012292;28;20719;-72
2022/08/05 01:08:21;;;;;;;6.95;4.30;;;;;;;19.98;70.31;94942.56;5012022;28;20216;-72
2022/08/05 01:10:59;;;;;;;6.13;5.10;;;;;;;20.08;70.20;94970.06;5012116;28;20177;-71
2022/08/05 01:13:28;;;;;;;8.77;5.35;;;;;;;20.06;70.66;94971.44;5011882;28;20184;-72
2022/08/05 01:15:58;;;;;;;5.50;4.22;;;;;;;19.73;70.50;94914.75;5012162;28;20173;-72
2022/08/05 01:18:39;;;;;;;13.65;4.70;;;;;;;20.05;70.78;94964.47;5012054;28;20172;-71
2022/08/05 01:21:13;;;;;;;7.38;4.53;;;;;;;19.99;70.79;94969.00;5011850;28;20186;-71
2022/08/05 01:24:21;;;;;;;7.50;4.95;;;;;;;19.91;70.42;94970.34;5011820;28;20178;-72
2022/08/05 01:26:58;;;;;;;5.80;4.30;;;;;;;19.87;71.05;94976.50;4993716;28;20196;-72
2022/08/05 01:29:33;;;;;;;9.73;5.97;;;;;;;19.85;70.77;94976.75;4992386;28;20215;-72
2022/08/05 01:32:03;;;;;;;8.95;4.82;;;;;;;19.82;70.65;94979.94;4991986;28;20184;-72
2022/08/05 01:34:47;;;;;;;7.30;4.70;;;;;;;19.80;71.12;94981.31;4992237;28;20216;-72
2022/08/05 01:37:29;;;;;;;6.85;4.45;;;;;;;19.80;71.13;94981.31;5004216;28;20180;-72
2022/08/05 01:39:57;;;;;;;6.63;5.00;;;;;;;19.79;70.87;94979.69;5006520;28;20168;-72
2022/08/05 01:42:25;;;;;;;9.20;5.22;;;;;;;19.66;70.73;94958.81;5011507;28;20185;-72
2022/08/05 01:44:53;;;;;;;5.93;5.18;;;;;;;19.81;70.13;94974.88;5011340;28;20203;-72
2022/08/05 01:47:19;;;;;;;17.33;11.63;;;;;;;19.78;70.08;94978.88;5011451;28;20639;-72
2022/08/05 01:49:49;;;;;;;8.57;5.53;;;;;;;19.77;70.51;94974.59;5011404;28;20187;-72
2022/08/05 01:52:17;;;;;;;31.35;15.77;;;;;;;19.75;70.60;94981.28;5011289;28;20644;-72
2022/08/05 01:54:54;;;;;;;7.75;5.50;;;;;;;19.70;70.35;94982.09;5010957;28;20207;-72
2022/08/05 01:57:27;;;;;;;20.95;11.95;;;;;;;19.67;70.56;94982.59;5011264;28;20172;-72
2022/08/05 01:59:57;;;;;;;12.45;7.45;;;;;;;19.68;70.72;94984.22;5011198;28;20226;-72
2022/08/05 02:02:24;;;;;;;14.93;9.27;;;;;;;19.65;70.84;94984.72;5011471;28;20267;-72
2022/08/05 02:04:51;;;;;;;8.60;5.97;;;;;;;19.58;70.58;94984.19;5011282;28;20978;-72
2022/08/05 02:07:17;;;;;;;10.77;7.47;;;;;;;19.60;70.73;94987.41;5011162;28;20187;-72
2022/08/05 02:09:44;;;;;;;11.63;6.00;;;;;;;19.57;70.98;94977.22;5010908;28;20585;-72
2022/08/05 02:12:30;;;;;;;11.13;6.45;;;;;;;19.56;70.77;94986.31;5011186;28;20176;-73
2022/08/05 02:15:07;;;;;;;8.05;5.90;;;;;;;19.54;70.92;94980.44;5010793;28;20192;-73
2022/08/05 02:17:44;;;;;;;12.05;5.43;;;;;;;19.48;70.79;94978.81;5011218;28;20183;-73
2022/08/05 02:20:16;;;;;;;7.00;5.45;;;;;;;19.43;71.22;94984.13;5011049;28;20659;-73
2022/08/05 02:22:45;;;;;;;8.82;5.35;;;;;;;19.34;70.86;94961.66;5010899;28;20180;-73
2022/08/05 02:25:18;;;;;;;24.35;5.20;;;;;;;19.39;70.73;94977.69;5010866;28;20169;-73
2022/08/05 02:27:47;;;;;;;9.05;5.30;;;;;;;19.36;70.75;94981.69;5010739;28;20219;-73
2022/08/05 02:30:15;;;;;;;7.88;4.70;;;;;;;19.23;71.13;94971.50;5010763;28;20287;-73
2022/08/05 02:32:45;;;;;;;7.60;5.22;;;;;;;19.25;71.47;94971.25;5011037;28;20267;-73
2022/08/05 02:35:14;;;;;;;7.50;4.75;;;;;;;19.28;71.42;94976.06;5010898;28;20210;-73
2022/08/05 02:37:42;;;;;;;11.55;5.88;;;;;;;19.29;71.39;94978.44;5010890;28;20173;-73
2022/08/05 02:40:09;;;;;;;8.75;4.93;;;;;;;19.30;71.49;94972.03;4993128;28;20537;-73
2022/08/05 02:42:36;;;;;;;7.50;5.07;;;;;;;19.14;71.53;94963.19;5010613;28;20188;-73
2022/08/05 02:45:02;;;;;;;7.75;4.70;;;;;;;18.86;72.20;94958.25;5010409;28;20268;-73
2022/08/05 02:47:30;;;;;;;7.95;4.85;;;;;;;18.99;72.96;94971.13;5010713;28;20618;-73
2022/08/05 02:49:57;;;;;;;9.63;5.22;;;;;;;18.97;73.00;94972.44;5010597;28;20183;-73
2022/08/05 02:52:23;;;;;;;5.88;4.72;;;;;;;18.94;72.96;94971.09;5010535;28;20195;-73
2022/08/05 02:54:50;;;;;;;9.18;4.70;;;;;;;18.95;72.80;94967.38;5010371;28;20581;-73
2022/08/05 02:57:18;;;;;;;10.20;4.25;;;;;;;19.00;72.80;94972.75;5010428;28;20180;-73
2022/08/05 02:59:46;;;;;;;8.75;4.25;;;;;;;18.99;72.66;94967.66;5010456;28;20172;-73
2022/08/05 03:02:18;;;;;;;584.63;116.75;;;;;;;18.96;73.07;94971.66;5010534;28;20176;-73
2022/08/05 03:04:45;;;;;;;8.07;4.25;;;;;;;18.93;72.98;94977.53;5010508;28;20521;-73
2022/08/05 03:07:12;;;;;;;7.40;4.85;;;;;;;18.93;73.19;94974.84;5014300;28;20195;-73
2022/08/05 03:09:40;;;;;;;9.45;5.38;;;;;;;18.87;73.01;94959.84;5014228;28;20251;-73
2022/08/05 03:12:07;;;;;;;10.73;5.45;;;;;;;18.93;73.00;94976.72;5014587;28;20168;-73
2022/08/05 03:14:32;;;;;;;9.55;5.53;;;;;;;18.87;72.83;94967.88;5014275;28;20216;-73
2022/08/05 03:16:58;;;;;;;10.05;4.82;;;;;;;18.88;72.54;94980.16;5014513;28;20185;-73
2022/08/05 03:19:24;;;;;;;14.60;5.20;;;;;;;18.73;73.01;94956.06;5004526;28;20177;-75
2022/08/05 03:21:49;;;;;;;9.75;4.80;;;;;;;18.84;72.40;94977.22;4994564;28;20708;-74
2022/08/05 03:24:19;;;;;;;6.38;4.63;;;;;;;18.81;72.66;94974.25;4994585;28;20244;-74
2022/08/05 03:26:45;;;;;;;7.68;4.70;;;;;;;18.73;72.44;94962.22;4994488;28;20617;-74
2022/08/05 03:29:10;;;;;;;8.30;5.10;;;;;;;18.71;72.23;94950.97;4994477;28;20177;-74
2022/08/05 03:31:36;;;;;;;8.45;5.47;;;;;;;18.85;72.31;94981.47;5012184;28;20188;-74
2022/08/05 03:34:03;;;;;;;6.13;5.03;;;;;;;18.87;71.95;94981.19;5013841;28;20258;-75
2022/08/05 03:36:30;;;;;;;9.93;4.80;;;;;;;18.69;71.93;94950.44;5013385;28;20184;-74
2022/08/05 03:38:56;;;;;;;10.05;5.18;;;;;;;18.85;71.85;94976.13;5005314;28;20183;-74
2022/08/05 03:41:22;;;;;;;8.32;4.95;;;;;;;18.84;72.29;94971.06;5009502;28;20185;-75
2022/08/05 03:43:47;;;;;;;8.43;4.30;;;;;;;18.83;71.51;94969.47;5010747;28;20196;-75
2022/08/05 03:46:13;;;;;;;9.05;4.63;;;;;;;18.75;71.21;94959.28;5013410;28;20180;-74
2022/08/05 03:48:38;;;;;;;7.43;5.50;;;;;;;18.87;72.05;94983.06;5013583;28;20184;-74
2022/08/05 03:51:20;;;;;;;10.32;4.50;;;;;;;18.89;71.97;94981.75;5012291;28;20188;-74
2022/08/05 03:54:05;;;;;;;6.85;4.32;;;;;;;18.92;72.08;94981.25;5010441;28;20996;-73
2022/08/05 03:56:37;;;;;;;10.18;5.57;;;;;;;18.99;72.24;94981.81;5006899;28;20606;-73
2022/08/05 03:59:07;;;;;;;13.75;9.40;;;;;;;19.08;71.79;94979.44;5013392;28;20263;-74
2022/08/05 04:01:38;;;;;;;18.88;12.50;;;;;;;19.14;71.81;94984.53;5011457;28;20694;-73
2022/08/05 04:04:04;;;;;;;15.40;8.35;;;;;;;19.20;71.66;94978.16;5003672;28;20188;-73
2022/08/05 04:06:32;;;;;;;20.52;10.02;;;;;;;19.27;71.20;94977.13;5008004;28;20655;-74
2022/08/05 04:08:57;;;;;;;14.40;7.68;;;;;;;19.47;70.68;94985.19;4997108;28;20316;-74
2022/08/05 04:11:24;;;;;;;11.25;5.40;;;;;;;19.62;70.10;94981.78;5013310;28;20243;-73
2022/08/05 04:13:49;;;;;;;13.63;6.97;;;;;;;19.77;69.86;94987.16;5004165;28;20210;-73
2022/08/05 04:16:15;;;;;;;9.50;6.60;;;;;;;19.90;68.61;94994.66;4993398;28;20181;-73
2022/08/05 04:18:43;;;;;;;12.35;6.07;;;;;;;19.83;67.96;94964.72;5001353;28;20175;-74
2022/08/05 04:21:09;;;;;;;6.95;4.80;;;;;;;20.06;67.70;94985.59;5012902;28;20181;-73
2022/08/05 04:23:35;;;;;;;12.80;5.47;;;;;;;20.20;66.73;94988.53;5012564;28;20176;-75
2022/08/05 04:26:01;;;;;;;13.23;7.55;;;;;;;20.36;67.86;94982.16;5001815;28;20536;-73
2022/08/05 04:28:27;;;;;;;11.57;5.70;;;;;;;20.58;67.05;94979.19;4975471;28;20184;-74
2022/08/05 04:30:53;;;;;;;10.90;5.22;;;;;;;20.82;64.66;94974.84;4999634;28;20180;-74
2022/08/05 04:33:18;;;;;;;9.95;4.55;;;;;;;21.06;63.19;94972.38;5011225;28;20176;-74
2022/08/05 04:35:44;;;;;;;7.38;4.95;;;;;;;21.34;62.66;94974.44;5011019;28;20263;-74
2022/08/05 04:38:10;;;;;;;8.18;4.65;;;;;;;21.62;61.56;94985.56;5011099;28;20272;-74
2022/08/05 04:40:36;;;;;;;6.00;4.05;;;;;;;21.95;60.43;94976.78;5011888;28;20176;-74
2022/08/05 04:43:02;;;;;;;6.22;4.15;;;;;;;22.18;58.44;94975.28;5002350;28;20185;-74
2022/08/05 04:45:28;;;;;;;6.35;3.80;;;;;;;22.57;57.61;94978.69;5006226;28;20725;-74
2022/08/05 04:47:53;;;;;;;8.10;4.10;;;;;;;22.97;57.30;94982.09;5005848;28;20176;-74
2022/08/05 04:50:19;;;;;;;8.48;4.25;;;;;;;23.24;55.72;94966.22;5003891;28;20239;-74
2022/08/05 04:52:45;;;;;;;5.25;3.65;;;;;;;23.76;54.10;94977.94;5003219;28;20276;-74
2022/08/05 04:55:10;;;;;;;6.65;3.90;;;;;;;24.13;53.89;94979.00;4992569;28;20341;-74
2022/08/05 04:57:36;;;;;;;6.28;4.00;;;;;;;24.57;51.62;94983.94;4992619;28;20180;-74
2022/08/05 05:00:04;;;;;;;5.90;3.83;;;;;;;24.85;51.07;94985.63;4992552;28;20252;-74
2022/08/05 05:02:29;;;;;;;6.97;3.92;;;;;;;25.33;49.50;94978.00;4998719;28;20177;-74
2022/08/05 05:04:55;;;;;;;7.30;4.47;;;;;;;25.85;48.54;94982.06;5011286;28;20188;-74
2022/08/05 05:07:20;;;;;;;6.07;3.92;;;;;;;26.42;47.16;94984.28;5011697;28;20176;-76
2022/08/05 05:09:46;;;;;;;5.10;3.72;;;;;;;26.91;46.66;94967.09;4993520;28;20637;-76
2022/08/05 05:12:11;;;;;;;11.02;3.85;;;;;;;27.42;44.63;94977.31;5007166;28;20687;-76
2022/08/05 05:14:37;;;;;;;11.32;4.05;;;;;;;27.90;44.56;94977.31;5002264;28;20208;-76
2022/08/05 05:17:02;;;;;;;8.82;7.30;;;;;;;28.38;42.38;94966.34;4992179;28;20176;-76
2022/08/05 05:19:28;;;;;;;275.08;109.63;;;;;;;28.42;41.77;94961.09;5001799;28;20211;-76
2022/08/05 05:21:53;;;;;;;133.80;55.47;;;;;;;29.05;41.43;94970.38;5012171;28;20176;-76
2022/08/05 05:24:20;;;;;;;152.50;50.97;;;;;;;29.51;40.81;94975.78;5011995;28;20201;-76
2022/08/05 05:26:46;;;;;;;54.20;14.25;;;;;;;30.06;40.05;94977.53;5009192;28;20181;-76
2022/08/05 05:29:12;;;;;;;57.13;10.15;;;;;;;30.76;38.56;94973.13;4974607;28;20192;-77
2022/08/05 05:31:37;;;;;;;8.25;4.57;;;;;;;31.34;36.71;94979.34;5004107;28;20168;-77
2022/08/05 05:34:03;;;;;;;9.32;4.55;;;;;;;31.94;36.01;94981.28;4993797;28;20556;-76
2022/08/05 05:36:30;;;;;;;20.02;10.07;;;;;;;32.48;34.62;94964.59;4997622;28;20565;-77
2022/08/05 05:38:55;;;;;;;13.43;7.20;;;;;;;32.94;33.88;94983.03;5002143;28;20185;-76
2022/08/05 05:41:21;;;;;;;11.55;8.18;;;;;;;33.20;33.39;94977.09;5002055;28;20176;-77
2022/08/05 05:43:46;;;;;;;15.32;9.35;;;;;;;33.61;32.94;94962.13;5008840;28;20652;-77
2022/08/05 05:46:12;;;;;;;8.10;5.65;;;;;;;33.82;32.80;94978.22;4986396;28;20177;-77
2022/08/05 05:48:40;;;;;;;5.55;4.90;;;;;;;34.21;31.57;94983.78;5008833;28;20573;-76
2022/08/05 05:51:06;;;;;;;6.93;4.68;;;;;;;34.16;32.20;94978.59;5009452;28;20172;-76
2022/08/05 05:53:31;;;;;;;8.15;5.05;;;;;;;34.38;31.41;94966.97;4997138;28;20692;-76
2022/08/05 05:55:56;;;;;;;5.38;4.57;;;;;;;34.65;30.85;94978.84;5006242;28;20176;-76
2022/08/05 05:58:22;;;;;;;9.07;4.78;;;;;;;34.40;30.74;94957.25;5009688;28;20180;-76
2022/08/05 06:00:47;;;;;;;6.03;4.55;;;;;;;34.11;31.94;94938.66;5011314;28;20184;-76
2022/08/05 06:03:13;;;;;;;8.45;4.60;;;;;;;34.20;32.00;94976.72;5003320;28;20231;-76
2022/08/05 06:05:38;;;;;;;11.10;5.68;;;;;;;34.24;32.42;94972.94;5004705;28;20751;-76
2022/08/05 06:08:03;;;;;;;7.20;4.95;;;;;;;34.20;31.33;94979.44;4991564;28;20308;-76
2022/08/05 06:10:29;;;;;;;11.48;5.47;;;;;;;34.02;31.66;94984.53;4997141;28;20640;-76
2022/08/05 06:12:54;;;;;;;6.90;4.65;;;;;;;34.02;32.03;94977.13;5004981;28;20287;-76
2022/08/05 06:15:20;;;;;;;9.38;5.80;;;;;;;33.63;32.03;94981.69;5010891;28;20745;-76
2022/08/05 06:17:45;;;;;;;8.82;5.60;;;;;;;33.14;33.30;94981.19;5004228;28;20176;-76
2022/08/05 06:20:11;;;;;;;10.35;5.45;;;;;;;32.92;34.66;94979.88;5005690;28;20188;-77
2022/08/05 06:22:36;;;;;;;10.93;5.53;;;;;;;32.92;34.44;94988.03;4996574;28;20231;-76
2022/08/05 06:25:04;;;;;;;5.32;4.32;;;;;;;32.89;34.00;94979.75;5005635;28;20180;-77
2022/08/05 06:27:29;;;;;;;8.60;4.80;;;;;;;32.91;34.66;94981.00;5005407;28;20207;-76
2022/08/05 06:29:55;;;;;;;6.28;4.50;;;;;;;32.92;34.42;94979.06;4996684;28;20730;-76
2022/08/05 06:32:20;;;;;;;7.80;4.63;;;;;;;33.01;34.40;94976.97;5000189;28;20588;-77
2022/08/05 06:34:46;;;;;;;7.20;4.57;;;;;;;33.09;33.22;94981.47;4999859;28;20207;-77
2022/08/05 06:37:11;;;;;;;5.97;3.80;;;;;;;33.02;33.61;94978.56;5005232;28;20290;-76
2022/08/05 06:39:38;;;;;;;8.65;5.07;;;;;;;32.86;33.85;94964.09;5010228;28;20180;-76
2022/08/05 06:42:04;;;;;;;8.50;3.90;;;;;;;32.75;34.43;94963.81;5010312;28;20204;-76
2022/08/05 06:44:30;;;;;;;6.75;4.15;;;;;;;32.55;34.50;94979.22;5010501;28;20251;-76
2022/08/05 06:46:56;;;;;;;6.53;4.15;;;;;;;32.03;34.51;94965.59;5000434;28;20255;-77
2022/08/05 06:49:22;;;;;;;6.82;4.63;;;;;;;31.97;35.39;94969.72;4998348;28;20173;-78
2022/08/05 06:51:47;;;;;;;8.80;4.05;;;;;;;32.05;35.58;94976.16;4995369;28;20177;-77
2022/08/05 06:54:13;;;;;;;6.53;4.10;;;;;;;31.88;35.43;94969.03;4998817;28;20258;-77
2022/08/05 06:56:38;;;;;;;4.85;4.05;;;;;;;31.90;35.08;94969.50;5009023;28;20169;-77
2022/08/05 06:59:05;;;;;;;4.78;4.35;;;;;;;31.95;35.09;94963.00;5010952;28;20518;-78
2022/08/05 07:01:30;;;;;;;8.13;4.20;;;;;;;31.88;34.63;94966.31;5005860;28;20169;-77
2022/08/05 07:03:56;;;;;;;7.38;4.00;;;;;;;31.46;35.72;94969.28;5006332;28;20295;-77
2022/08/05 07:06:22;;;;;;;7.38;3.90;;;;;;;31.32;35.77;94962.56;5001315;28;20188;-77
2022/08/05 07:08:47;;;;;;;9.80;3.90;;;;;;;31.42;36.62;94946.59;5002409;28;20219;-77
2022/08/05 07:11:13;;;;;;;8.02;3.92;;;;;;;31.89;36.00;94967.91;5002970;28;20181;-78
2022/08/05 07:16:48;;;;;;;7.65;4.00;;;;;;;31.91;35.37;94948.50;4982990;28;20250;-78
2022/08/05 07:19:14;;;;;;;5.70;4.00;;;;;;;32.27;33.50;94974.88;4999624;28;20734;-78
2022/08/05 07:21:40;;;;;;;10.13;4.28;;;;;;;32.40;34.20;94973.72;4991074;28;20635;-78
2022/08/05 07:24:06;;;;;;;7.32;4.30;;;;;;;32.58;33.29;94975.78;5003706;28;20173;-78
2022/08/05 07:26:31;;;;;;;4.95;4.05;;;;;;;32.36;34.09;94970.06;4987818;28;20184;-78
2022/08/05 07:28:56;;;;;;;4.97;3.75;;;;;;;31.95;34.95;94922.16;5007040;28;20176;-78
2022/08/05 07:31:22;;;;;;;6.88;4.85;;;;;;;32.51;34.59;94980.25;4995731;28;20188;-78
2022/08/05 07:33:47;;;;;;;5.10;4.05;;;;;;;32.83;33.75;94956.59;5004491;28;20674;-78
2022/08/05 07:36:13;;;;;;;5.53;4.30;;;;;;;33.19;32.61;94972.75;5002728;28;20268;-78
2022/08/05 07:38:39;;;;;;;7.85;4.18;;;;;;;32.99;33.32;94973.78;5006832;28;20193;-78
2022/08/05 07:41:11;;;;;;;4.78;3.92;;;;;;;32.59;32.38;94966.47;5008807;28;20192;-77
2022/08/05 07:43:36;;;;;;;9.77;4.38;;;;;;;32.25;33.26;94967.06;5006643;28;20643;-78
2022/08/05 07:46:02;;;;;;;6.70;4.53;;;;;;;31.89;33.60;94967.13;5004984;28;20211;-78
2022/08/05 07:48:27;;;;;;;6.25;4.80;;;;;;;31.81;33.43;94961.47;5009918;28;20208;-78
2022/08/05 07:50:53;;;;;;;8.40;3.83;;;;;;;31.62;34.79;94965.91;5004966;28;20235;-78
2022/08/05 07:53:18;;;;;;;7.28;4.68;;;;;;;32.00;34.20;94963.56;4995195;28;20259;-78
2022/08/05 07:55:44;;;;;;;8.32;5.03;;;;;;;32.30;32.46;94963.28;5003776;28;20232;-78
2022/08/05 07:58:09;;;;;;;9.98;4.47;;;;;;;32.11;32.94;94953.78;4995304;28;20176;-79
2022/08/05 08:00:35;;;;;;;4.72;3.75;;;;;;;31.82;34.37;94965.78;5002575;28;20608;-78
2022/08/05 08:03:00;;;;;;;4.28;3.88;;;;;;;31.71;33.87;94961.13;5010967;28;20176;-78
2022/08/05 08:05:26;;;;;;;8.23;4.55;;;;;;;31.45;34.00;94951.34;5014148;28;20169;-79
2022/08/05 08:07:54;;;;;;;5.38;4.15;;;;;;;31.50;34.87;94959.28;5014894;28;20176;-80
2022/08/05 08:10:22;;;;;;;6.95;3.92;;;;;;;32.04;35.07;94958.22;5004996;28;20238;-80
2022/08/05 08:12:48;;;;;;;5.15;4.07;;;;;;;32.41;33.50;94965.19;5006825;28;20172;-80
2022/08/05 08:15:14;;;;;;;8.90;4.70;;;;;;;32.42;34.77;94941.44;5009735;28;20606;-80
2022/08/05 08:17:40;;;;;;;4.13;3.72;;;;;;;32.97;33.19;94965.16;4995886;28;20192;-80
2022/08/05 08:20:06;;;;;;;8.10;3.88;;;;;;;33.18;33.18;94952.06;5000093;28;20179;-80
2022/08/05 08:22:32;;;;;;;10.27;4.13;;;;;;;33.47;33.92;94956.28;5011001;28;20169;-80
2022/08/05 08:24:57;;;;;;;10.95;4.65;;;;;;;33.93;32.76;94956.59;5011661;28;20606;-79
2022/08/05 08:27:23;;;;;;;5.97;4.32;;;;;;;34.21;31.08;94956.44;5010925;28;20678;-82
2022/08/05 08:29:48;;;;;;;8.77;4.60;;;;;;;34.51;31.35;94960.19;5013003;28;20728;-79
2022/08/05 08:32:14;;;;;;;5.72;4.60;;;;;;;34.56;31.92;94927.09;5003777;28;20180;-79
2022/08/05 08:34:39;;;;;;;12.45;4.65;;;;;;;34.83;30.18;94949.13;4998799;28;20205;-79
2022/08/05 08:37:04;;;;;;;6.72;4.10;;;;;;;34.70;29.08;94941.03;5004390;28;20181;-79
2022/08/05 08:39:30;;;;;;;4.28;3.88;;;;;;;34.33;30.01;94951.66;4997224;28;20184;-79
2022/08/05 08:41:56;;;;;;;7.75;4.30;;;;;;;33.97;29.62;94943.81;4987873;28;20184;-79
2022/08/05 08:44:24;;;;;;;9.77;3.50;;;;;;;33.95;31.27;94943.38;5004010;28;20181;-78
2022/08/05 08:46:50;;;;;;;9.88;4.40;;;;;;;33.81;30.13;94951.28;5011167;28;20563;-77
2022/08/05 08:49:18;;;;;;;5.97;4.05;;;;;;;33.51;31.06;94945.47;5000827;28;20188;-77
2022/08/05 08:51:47;;;;;;;3.83;2.97;;;;;;;32.93;32.17;94943.25;5004700;28;20570;-77
2022/08/05 08:54:13;;;;;;;6.20;3.17;;;;;;;33.28;31.48;94948.84;5001932;28;20205;-77
2022/08/05 08:56:40;;;;;;;7.20;3.63;;;;;;;33.63;32.25;94946.16;4999654;28;20263;-77
2022/08/05 08:59:06;;;;;;;5.18;3.08;;;;;;;33.59;32.23;94936.28;5002023;28;20184;-77
2022/08/05 09:01:31;;;;;;;9.50;3.20;;;;;;;33.69;30.58;94941.22;5012472;28;20215;-77
2022/08/05 09:03:59;;;;;;;5.97;3.20;;;;;;;33.48;29.99;94943.44;4986329;28;20251;-77
2022/08/05 09:06:25;;;;;;;5.35;3.22;;;;;;;33.33;29.39;94937.66;4992281;28;20181;-77
2022/08/05 09:08:51;;;;;;;4.68;2.50;;;;;;;33.22;29.38;94936.59;4974616;28;20216;-77
2022/08/05 09:11:17;;;;;;;4.78;2.88;;;;;;;33.17;28.81;94936.84;4992242;28;20707;-77
2022/08/05 09:13:42;;;;;;;4.40;2.90;;;;;;;33.29;28.60;94912.22;4992013;28;20203;-75
2022/08/05 09:16:10;;;;;;;6.97;3.53;;;;;;;33.33;30.47;94913.06;4974218;28;20180;-76
2022/08/05 09:18:36;;;;;;;4.13;3.15;;;;;;;33.53;28.94;94933.06;4990273;28;20204;-77
2022/08/05 09:21:02;;;;;;;4.75;2.78;;;;;;;33.51;30.18;94918.94;4990433;28;20652;-77
2022/08/05 09:23:29;;;;;;;5.22;3.08;;;;;;;33.64;29.55;94911.44;4990488;28;20251;-77
2022/08/05 09:26:07;;;;;;;5.68;3.38;;;;;;;33.40;29.59;94904.25;4990974;28;20777;-77
2022/08/05 09:28:33;;;;;;;8.55;3.47;;;;;;;33.46;30.67;94902.84;4991173;28;20235;-77
2022/08/05 09:31:08;;;;;;;6.63;3.30;;;;;;;33.03;28.99;94900.22;4991128;28;20173;-77
2022/08/05 09:33:50;;;;;;;9.43;3.78;;;;;;;32.97;30.98;94899.66;4991729;28;20180;-77
2022/08/05 09:36:16;;;;;;;3.80;2.88;;;;;;;32.85;28.34;94905.22;4991706;28;20212;-77
2022/08/05 09:39:07;;;;;;;2.95;1.85;;;;;;;32.86;28.77;94898.63;4997970;28;20651;-77
2022/08/05 09:41:33;;;;;;;7.32;2.97;;;;;;;32.95;30.23;94896.53;4993872;28;20181;-77
2022/08/05 09:43:58;;;;;;;4.10;3.33;;;;;;;33.07;30.28;94893.69;4992459;28;20723;-77
2022/08/05 09:46:29;;;;;;;3.08;2.58;;;;;;;33.20;29.52;94889.72;4991791;28;20179;-77
2022/08/05 09:49:03;;;;;;;5.00;2.75;;;;;;;33.28;29.70;94888.78;4991770;28;20662;-77
2022/08/05 09:51:33;;;;;;;5.10;2.30;;;;;;;33.17;28.72;94876.78;4991760;28;20239;-77
2022/08/05 09:53:59;;;;;;;5.80;2.88;;;;;;;33.15;28.25;94891.91;5010333;28;20248;-77
2022/08/05 09:56:29;;;;;;;2.95;2.63;;;;;;;33.01;28.63;94884.19;5010204;28;20184;-77
2022/08/05 09:59:03;;;;;;;6.55;2.83;;;;;;;32.88;30.50;94880.75;5010180;28;20183;-77
2022/08/05 10:01:32;;;;;;;7.68;2.83;;;;;;;32.78;30.61;94864.91;5010648;28;20176;-77
2022/08/05 10:04:06;;;;;;;4.15;2.53;;;;;;;33.00;30.67;94885.34;5010205;28;20172;-77
2022/08/05 10:06:32;;;;;;;3.20;2.33;;;;;;;32.86;30.39;94858.50;5010210;28;20211;-77
2022/08/05 10:09:21;;;;;;;3.50;3.05;;;;;;;32.91;30.76;94862.88;5000853;28;20261;-77
2022/08/05 10:11:48;;;;;;;3.13;2.80;;;;;;;32.89;28.89;94868.69;5010162;28;20188;-77
2022/08/05 10:14:39;;;;;;;4.03;2.20;;;;;;;32.61;28.75;94863.28;5010365;28;20236;-77
2022/08/05 10:17:14;;;;;;;7.45;2.83;;;;;;;32.30;29.76;94859.72;4991170;28;20211;-77
2022/08/05 10:19:40;;;;;;;2.92;2.47;;;;;;;32.33;29.95;94865.28;5010425;28;20199;-77
2022/08/05 10:22:07;;;;;;;5.70;2.20;;;;;;;31.82;29.88;94845.13;5005089;28;20169;-77
2022/08/05 10:24:34;;;;;;;2.92;2.50;;;;;;;31.69;30.19;94863.44;4990835;28;20200;-77
2022/08/05 10:27:00;;;;;;;3.60;2.88;;;;;;;31.77;30.13;94859.78;4990967;28;20219;-77
2022/08/05 10:29:28;;;;;;;3.42;2.97;;;;;;;31.94;30.06;94860.63;4990859;28;20173;-77
2022/08/05 10:31:55;;;;;;;4.32;2.88;;;;;;;31.85;30.23;94863.50;4990762;28;20177;-77
2022/08/05 10:34:21;;;;;;;4.45;2.53;;;;;;;31.76;30.17;94863.63;4990608;28;20759;-77
2022/08/05 10:36:48;;;;;;;4.45;2.45;;;;;;;31.74;30.12;94856.97;4990722;28;20177;-77
2022/08/05 10:39:18;;;;;;;3.25;2.88;;;;;;;31.75;29.57;94851.16;4990495;28;20188;-77
2022/08/05 10:41:59;;;;;;;5.18;2.53;;;;;;;31.81;30.35;94852.50;5007156;28;20180;-77
2022/08/05 10:44:26;;;;;;;4.50;3.13;;;;;;;31.78;29.83;94844.22;5010397;28;20168;-77
2022/08/05 10:46:54;;;;;;;6.28;3.13;;;;;;;31.66;29.88;94853.22;5010078;28;20562;-77
2022/08/05 10:49:21;;;;;;;3.58;3.25;;;;;;;31.38;30.35;94847.72;5010175;28;20194;-77
2022/08/05 10:51:48;;;;;;;5.22;3.17;;;;;;;31.34;30.41;94840.56;5009991;28;20652;-77
2022/08/05 10:54:14;;;;;;;2.83;2.60;;;;;;;31.22;29.76;94835.94;5009960;28;20227;-77
2022/08/05 10:56:48;;;;;;;6.78;3.08;;;;;;;31.01;30.44;94838.75;5010385;28;20176;-77
2022/08/05 10:59:28;;;;;;;4.03;2.78;;;;;;;30.96;31.48;94833.53;5009971;28;20188;-77
2022/08/05 11:02:10;;;;;;;3.65;2.70;;;;;;;30.80;30.71;94804.63;5010066;28;20572;-77
2022/08/05 11:04:43;;;;;;;4.15;3.15;;;;;;;30.95;32.54;94823.00;5010322;28;20176;-77
2022/08/05 11:07:11;;;;;;;5.53;3.20;;;;;;;31.10;30.97;94817.69;5010018;28;20168;-77
2022/08/05 11:09:52;;;;;;;5.85;2.72;;;;;;;31.32;30.72;94819.13;5009703;28;20786;-77
2022/08/05 11:12:35;;;;;;;3.08;2.78;;;;;;;31.51;30.34;94818.53;5010222;28;20175;-77
2022/08/05 11:15:14;;;;;;;4.05;2.78;;;;;;;31.56;30.49;94831.13;5009834;28;20290;-77
2022/08/05 11:17:41;;;;;;;4.55;3.22;;;;;;;31.44;30.34;94819.09;5009860;28;20176;-76
2022/08/05 11:20:27;;;;;;;4.10;2.60;;;;;;;31.30;30.57;94821.41;4997165;28;20227;-77
2022/08/05 11:22:53;;;;;;;6.13;3.08;;;;;;;31.19;30.42;94816.78;4990041;28;20191;-77
2022/08/05 11:25:43;;;;;;;3.20;2.60;;;;;;;31.03;31.02;94814.72;4990340;28;20255;-77
2022/08/05 11:28:08;;;;;;;3.65;3.00;;;;;;;30.81;31.05;94814.38;5007192;28;20180;-77
2022/08/05 11:31:01;;;;;;;3.50;2.70;;;;;;;30.72;31.41;94811.78;5013711;28;20183;-76
2022/08/05 11:33:47;;;;;;;2.70;2.50;;;;;;;30.78;32.21;94807.72;5013353;28;20187;-77
2022/08/05 11:36:18;;;;;;;4.72;3.80;;;;;;;30.83;31.37;94801.25;4986741;28;20204;-77
2022/08/05 11:38:43;;;;;;;5.20;3.20;;;;;;;30.92;31.60;94797.28;4993291;28;20185;-77